sensor_id;sensor_type;location;lat;lon;timestamp;P1;durP1;ratioP1;P2;durP2;ratioP2
81627;SDS011;71036;51.102;6.514;2024-02-26T00:01:25;1.33;;;0.80;;
81627;SDS011;71036;51.102;6.514;2024-02-26T00:03:50;3.40;;;1.30;;
81627;SDS011;71036;51.102;6.514;2024-02-26T00:06:17;2.63;;;0.90;;
81627;SDS011;71036;51.102;6.514;2024-02-26T00:08:43;1.83;;;1.67;;
81627;SDS011;71036;51.102;6.514;2024-02-26T00:11:08;1.60;;;1.00;;
81627;SDS011;71036;51.102;6.514;2024-02-26T00:13:34;0.70;;;0.50;;
81627;SDS011;71036;51.102;6.514;2024-02-26T00:15:59;1.67;;;0.70;;
81627;SDS011;71036;51.102;6.514;2024-02-26T00:18:24;5.60;;;1.23;;
81627;SDS011;71036;51.102;6.514;2024-02-26T00:20:49;3.33;;;1.10;;
81627;SDS011;71036;51.102;6.514;2024-02-26T00:23:15;2.30;;;1.00;;
81627;SDS011;71036;51.102;6.514;2024-02-26T00:25:41;1.77;;;0.70;;
81627;SDS011;71036;51.102;6.514;2024-02-26T00:28:07;3.97;;;1.50;;
81627;SDS011;71036;51.102;6.514;2024-02-26T00:30:33;1.00;;;0.80;;
81627;SDS011;71036;51.102;6.514;2024-02-26T00:32:58;0.83;;;0.67;;
81627;SDS011;71036;51.102;6.514;2024-02-26T00:35:23;3.23;;;1.00;;
81627;SDS011;71036;51.102;6.514;2024-02-26T00:37:49;0.90;;;0.70;;
81627;SDS011;71036;51.102;6.514;2024-02-26T00:40:14;2.40;;;1.00;;
81627;SDS011;71036;51.102;6.514;2024-02-26T00:42:39;1.47;;;0.80;;
81627;SDS011;71036;51.102;6.514;2024-02-26T00:45:10;1.77;;;1.07;;
81627;SDS011;71036;51.102;6.514;2024-02-26T00:47:35;1.83;;;1.20;;
81627;SDS011;71036;51.102;6.514;2024-02-26T00:50:01;0.90;;;0.60;;
81627;SDS011;71036;51.102;6.514;2024-02-26T00:52:27;0.90;;;0.70;;
81627;SDS011;71036;51.102;6.514;2024-02-26T00:54:52;1.43;;;0.70;;
81627;SDS011;71036;51.102;6.514;2024-02-26T00:57:17;3.10;;;1.00;;
81627;SDS011;71036;51.102;6.514;2024-02-26T00:59:43;1.60;;;0.63;;
81627;SDS011;71036;51.102;6.514;2024-02-26T01:02:08;2.43;;;1.07;;
81627;SDS011;71036;51.102;6.514;2024-02-26T01:04:33;1.83;;;1.03;;
81627;SDS011;71036;51.102;6.514;2024-02-26T01:06:59;2.60;;;1.23;;
81627;SDS011;71036;51.102;6.514;2024-02-26T01:09:24;1.07;;;0.60;;
81627;SDS011;71036;51.102;6.514;2024-02-26T01:11:49;1.80;;;0.87;;
81627;SDS011;71036;51.102;6.514;2024-02-26T01:14:15;0.90;;;0.80;;
81627;SDS011;71036;51.102;6.514;2024-02-26T01:16:40;2.00;;;0.80;;
81627;SDS011;71036;51.102;6.514;2024-02-26T01:19:06;2.70;;;0.77;;
81627;SDS011;71036;51.102;6.514;2024-02-26T01:21:31;1.27;;;0.80;;
81627;SDS011;71036;51.102;6.514;2024-02-26T01:23:57;2.10;;;0.73;;
81627;SDS011;71036;51.102;6.514;2024-02-26T01:26:22;1.00;;;0.87;;
81627;SDS011;71036;51.102;6.514;2024-02-26T01:28:48;1.83;;;0.90;;
81627;SDS011;71036;51.102;6.514;2024-02-26T01:31:13;2.47;;;1.00;;
81627;SDS011;71036;51.102;6.514;2024-02-26T01:33:38;2.40;;;0.90;;
81627;SDS011;71036;51.102;6.514;2024-02-26T01:36:04;1.70;;;1.00;;
81627;SDS011;71036;51.102;6.514;2024-02-26T01:38:31;1.13;;;0.70;;
81627;SDS011;71036;51.102;6.514;2024-02-26T01:40:57;5.70;;;1.00;;
81627;SDS011;71036;51.102;6.514;2024-02-26T01:43:22;2.60;;;1.20;;
81627;SDS011;71036;51.102;6.514;2024-02-26T01:45:47;1.27;;;0.93;;
81627;SDS011;71036;51.102;6.514;2024-02-26T01:48:13;2.43;;;1.00;;
81627;SDS011;71036;51.102;6.514;2024-02-26T01:50:38;1.40;;;1.00;;
81627;SDS011;71036;51.102;6.514;2024-02-26T01:53:05;1.97;;;1.10;;
81627;SDS011;71036;51.102;6.514;2024-02-26T01:55:32;1.30;;;0.63;;
81627;SDS011;71036;51.102;6.514;2024-02-26T01:57:58;2.00;;;1.30;;
81627;SDS011;71036;51.102;6.514;2024-02-26T02:00:24;0.70;;;0.50;;
81627;SDS011;71036;51.102;6.514;2024-02-26T02:02:49;1.80;;;0.67;;
81627;SDS011;71036;51.102;6.514;2024-02-26T02:05:16;0.90;;;0.57;;
81627;SDS011;71036;51.102;6.514;2024-02-26T02:07:45;1.10;;;0.70;;
81627;SDS011;71036;51.102;6.514;2024-02-26T02:10:11;2.10;;;0.80;;
81627;SDS011;71036;51.102;6.514;2024-02-26T02:12:37;3.37;;;0.70;;
81627;SDS011;71036;51.102;6.514;2024-02-26T02:15:04;1.50;;;0.70;;
81627;SDS011;71036;51.102;6.514;2024-02-26T02:17:30;1.10;;;0.57;;
81627;SDS011;71036;51.102;6.514;2024-02-26T02:19:56;1.50;;;0.53;;
81627;SDS011;71036;51.102;6.514;2024-02-26T02:22:21;0.87;;;0.67;;
81627;SDS011;71036;51.102;6.514;2024-02-26T02:24:47;1.83;;;0.77;;
81627;SDS011;71036;51.102;6.514;2024-02-26T02:27:13;4.13;;;0.50;;
81627;SDS011;71036;51.102;6.514;2024-02-26T02:29:39;2.20;;;0.97;;
81627;SDS011;71036;51.102;6.514;2024-02-26T02:32:04;2.10;;;0.60;;
81627;SDS011;71036;51.102;6.514;2024-02-26T02:34:30;3.30;;;1.10;;
81627;SDS011;71036;51.102;6.514;2024-02-26T02:36:56;1.87;;;0.50;;
81627;SDS011;71036;51.102;6.514;2024-02-26T02:39:22;0.50;;;0.30;;
81627;SDS011;71036;51.102;6.514;2024-02-26T02:41:47;1.33;;;0.67;;
81627;SDS011;71036;51.102;6.514;2024-02-26T02:44:13;1.17;;;1.07;;
81627;SDS011;71036;51.102;6.514;2024-02-26T02:46:38;2.87;;;0.63;;
81627;SDS011;71036;51.102;6.514;2024-02-26T02:49:07;1.50;;;0.67;;
81627;SDS011;71036;51.102;6.514;2024-02-26T02:51:34;5.50;;;0.70;;
81627;SDS011;71036;51.102;6.514;2024-02-26T02:53:59;2.37;;;0.87;;
81627;SDS011;71036;51.102;6.514;2024-02-26T02:56:25;0.87;;;0.70;;
81627;SDS011;71036;51.102;6.514;2024-02-26T02:58:50;0.70;;;0.50;;
81627;SDS011;71036;51.102;6.514;2024-02-26T03:01:15;0.83;;;0.60;;
81627;SDS011;71036;51.102;6.514;2024-02-26T03:03:40;1.20;;;0.60;;
81627;SDS011;71036;51.102;6.514;2024-02-26T03:06:06;1.53;;;0.60;;
81627;SDS011;71036;51.102;6.514;2024-02-26T03:08:31;6.40;;;0.63;;
81627;SDS011;71036;51.102;6.514;2024-02-26T03:10:58;2.10;;;1.13;;
81627;SDS011;71036;51.102;6.514;2024-02-26T03:13:24;2.60;;;1.00;;
81627;SDS011;71036;51.102;6.514;2024-02-26T03:15:49;2.33;;;0.90;;
81627;SDS011;71036;51.102;6.514;2024-02-26T03:18:14;0.80;;;0.60;;
81627;SDS011;71036;51.102;6.514;2024-02-26T03:20:40;1.00;;;0.70;;
81627;SDS011;71036;51.102;6.514;2024-02-26T03:23:05;2.20;;;0.60;;
81627;SDS011;71036;51.102;6.514;2024-02-26T03:25:30;0.80;;;0.60;;
81627;SDS011;71036;51.102;6.514;2024-02-26T03:27:56;1.30;;;0.70;;
81627;SDS011;71036;51.102;6.514;2024-02-26T03:30:21;2.00;;;1.00;;
81627;SDS011;71036;51.102;6.514;2024-02-26T03:32:46;1.73;;;0.90;;
81627;SDS011;71036;51.102;6.514;2024-02-26T03:35:12;1.50;;;0.90;;
81627;SDS011;71036;51.102;6.514;2024-02-26T03:37:38;0.70;;;0.67;;
81627;SDS011;71036;51.102;6.514;2024-02-26T03:40:03;2.30;;;0.70;;
81627;SDS011;71036;51.102;6.514;2024-02-26T03:42:29;0.57;;;0.40;;
81627;SDS011;71036;51.102;6.514;2024-02-26T03:44:54;1.63;;;0.73;;
81627;SDS011;71036;51.102;6.514;2024-02-26T03:47:20;1.87;;;0.63;;
81627;SDS011;71036;51.102;6.514;2024-02-26T03:49:45;1.53;;;0.80;;
81627;SDS011;71036;51.102;6.514;2024-02-26T03:52:10;0.90;;;0.67;;
81627;SDS011;71036;51.102;6.514;2024-02-26T03:54:36;0.70;;;0.70;;
81627;SDS011;71036;51.102;6.514;2024-02-26T03:57:01;1.67;;;1.03;;
81627;SDS011;71036;51.102;6.514;2024-02-26T03:59:26;1.77;;;0.80;;
81627;SDS011;71036;51.102;6.514;2024-02-26T04:01:52;0.70;;;0.60;;
81627;SDS011;71036;51.102;6.514;2024-02-26T04:04:17;0.70;;;0.60;;
81627;SDS011;71036;51.102;6.514;2024-02-26T04:06:46;1.33;;;0.60;;
81627;SDS011;71036;51.102;6.514;2024-02-26T04:09:13;0.67;;;0.53;;
81627;SDS011;71036;51.102;6.514;2024-02-26T04:11:39;1.10;;;0.70;;
81627;SDS011;71036;51.102;6.514;2024-02-26T04:14:04;1.90;;;0.70;;
81627;SDS011;71036;51.102;6.514;2024-02-26T04:16:33;1.33;;;0.90;;
81627;SDS011;71036;51.102;6.514;2024-02-26T04:18:58;9.77;;;0.80;;
81627;SDS011;71036;51.102;6.514;2024-02-26T04:21:24;5.23;;;0.70;;
81627;SDS011;71036;51.102;6.514;2024-02-26T04:23:49;2.87;;;0.90;;
81627;SDS011;71036;51.102;6.514;2024-02-26T04:26:14;1.40;;;1.20;;
81627;SDS011;71036;51.102;6.514;2024-02-26T04:28:40;2.10;;;1.00;;
81627;SDS011;71036;51.102;6.514;2024-02-26T04:31:06;0.83;;;0.70;;
81627;SDS011;71036;51.102;6.514;2024-02-26T04:33:33;1.07;;;0.60;;
81627;SDS011;71036;51.102;6.514;2024-02-26T04:35:59;1.77;;;1.00;;
81627;SDS011;71036;51.102;6.514;2024-02-26T04:38:25;2.70;;;1.20;;
81627;SDS011;71036;51.102;6.514;2024-02-26T04:40:50;1.57;;;0.80;;
81627;SDS011;71036;51.102;6.514;2024-02-26T04:43:15;1.50;;;0.70;;
81627;SDS011;71036;51.102;6.514;2024-02-26T04:45:42;1.60;;;0.67;;
81627;SDS011;71036;51.102;6.514;2024-02-26T04:48:08;4.20;;;0.90;;
81627;SDS011;71036;51.102;6.514;2024-02-26T04:50:33;0.80;;;0.60;;
81627;SDS011;71036;51.102;6.514;2024-02-26T04:52:59;1.53;;;0.80;;
81627;SDS011;71036;51.102;6.514;2024-02-26T04:55:24;1.80;;;1.03;;
81627;SDS011;71036;51.102;6.514;2024-02-26T04:57:49;0.80;;;0.70;;
81627;SDS011;71036;51.102;6.514;2024-02-26T05:00:15;2.10;;;0.80;;
81627;SDS011;71036;51.102;6.514;2024-02-26T05:02:40;0.90;;;0.70;;
81627;SDS011;71036;51.102;6.514;2024-02-26T05:05:06;1.10;;;0.70;;
81627;SDS011;71036;51.102;6.514;2024-02-26T05:07:31;1.30;;;0.60;;
81627;SDS011;71036;51.102;6.514;2024-02-26T05:09:57;1.27;;;0.73;;
81627;SDS011;71036;51.102;6.514;2024-02-26T05:12:22;2.30;;;1.20;;
81627;SDS011;71036;51.102;6.514;2024-02-26T05:14:48;1.50;;;0.80;;
81627;SDS011;71036;51.102;6.514;2024-02-26T05:17:13;3.33;;;1.10;;
81627;SDS011;71036;51.102;6.514;2024-02-26T05:19:38;2.00;;;0.90;;
81627;SDS011;71036;51.102;6.514;2024-02-26T05:22:04;2.10;;;0.90;;
81627;SDS011;71036;51.102;6.514;2024-02-26T05:24:29;4.10;;;1.77;;
81627;SDS011;71036;51.102;6.514;2024-02-26T05:26:54;1.90;;;1.30;;
81627;SDS011;71036;51.102;6.514;2024-02-26T05:29:20;3.27;;;1.40;;
81627;SDS011;71036;51.102;6.514;2024-02-26T05:31:46;1.87;;;1.07;;
81627;SDS011;71036;51.102;6.514;2024-02-26T05:34:11;2.07;;;1.03;;
81627;SDS011;71036;51.102;6.514;2024-02-26T05:36:36;3.53;;;1.07;;
81627;SDS011;71036;51.102;6.514;2024-02-26T05:39:05;1.37;;;1.00;;
81627;SDS011;71036;51.102;6.514;2024-02-26T05:41:30;4.57;;;1.37;;
81627;SDS011;71036;51.102;6.514;2024-02-26T05:43:56;1.97;;;1.20;;
81627;SDS011;71036;51.102;6.514;2024-02-26T05:46:21;3.83;;;1.90;;
81627;SDS011;71036;51.102;6.514;2024-02-26T05:48:48;2.77;;;1.30;;
81627;SDS011;71036;51.102;6.514;2024-02-26T05:51:15;3.10;;;1.27;;
81627;SDS011;71036;51.102;6.514;2024-02-26T05:53:41;5.30;;;1.40;;
81627;SDS011;71036;51.102;6.514;2024-02-26T05:56:06;2.13;;;0.93;;
81627;SDS011;71036;51.102;6.514;2024-02-26T05:58:31;1.00;;;0.80;;
81627;SDS011;71036;51.102;6.514;2024-02-26T06:00:57;4.17;;;1.30;;
81627;SDS011;71036;51.102;6.514;2024-02-26T06:03:22;3.27;;;1.43;;
81627;SDS011;71036;51.102;6.514;2024-02-26T06:05:47;1.20;;;1.10;;
81627;SDS011;71036;51.102;6.514;2024-02-26T06:08:13;1.97;;;1.37;;
81627;SDS011;71036;51.102;6.514;2024-02-26T06:10:39;3.63;;;1.33;;
81627;SDS011;71036;51.102;6.514;2024-02-26T06:13:04;1.97;;;1.23;;
81627;SDS011;71036;51.102;6.514;2024-02-26T06:15:30;1.47;;;1.00;;
81627;SDS011;71036;51.102;6.514;2024-02-26T06:17:55;1.70;;;1.50;;
81627;SDS011;71036;51.102;6.514;2024-02-26T06:20:20;2.60;;;1.87;;
81627;SDS011;71036;51.102;6.514;2024-02-26T06:22:46;3.23;;;1.67;;
81627;SDS011;71036;51.102;6.514;2024-02-26T06:25:11;5.33;;;2.10;;
81627;SDS011;71036;51.102;6.514;2024-02-26T06:27:36;4.70;;;1.50;;
81627;SDS011;71036;51.102;6.514;2024-02-26T06:30:02;4.13;;;1.70;;
81627;SDS011;71036;51.102;6.514;2024-02-26T06:32:27;1.83;;;1.40;;
81627;SDS011;71036;51.102;6.514;2024-02-26T06:34:54;3.73;;;1.60;;
81627;SDS011;71036;51.102;6.514;2024-02-26T06:37:20;2.90;;;1.53;;
81627;SDS011;71036;51.102;6.514;2024-02-26T06:39:45;3.03;;;1.53;;
81627;SDS011;71036;51.102;6.514;2024-02-26T06:42:10;2.50;;;1.80;;
81627;SDS011;71036;51.102;6.514;2024-02-26T06:44:36;3.13;;;1.67;;
81627;SDS011;71036;51.102;6.514;2024-02-26T06:47:01;4.90;;;2.23;;
81627;SDS011;71036;51.102;6.514;2024-02-26T06:49:27;4.20;;;1.80;;
81627;SDS011;71036;51.102;6.514;2024-02-26T06:51:53;2.57;;;1.57;;
81627;SDS011;71036;51.102;6.514;2024-02-26T06:54:18;2.23;;;2.00;;
81627;SDS011;71036;51.102;6.514;2024-02-26T06:56:44;4.70;;;1.83;;
81627;SDS011;71036;51.102;6.514;2024-02-26T06:59:09;2.53;;;2.03;;
81627;SDS011;71036;51.102;6.514;2024-02-26T07:01:34;2.57;;;2.37;;
81627;SDS011;71036;51.102;6.514;2024-02-26T07:04:00;7.43;;;2.50;;
81627;SDS011;71036;51.102;6.514;2024-02-26T07:06:25;2.70;;;2.23;;
81627;SDS011;71036;51.102;6.514;2024-02-26T07:08:51;3.73;;;2.63;;
81627;SDS011;71036;51.102;6.514;2024-02-26T07:11:17;5.23;;;2.33;;
81627;SDS011;71036;51.102;6.514;2024-02-26T07:13:44;4.77;;;2.33;;
81627;SDS011;71036;51.102;6.514;2024-02-26T07:16:09;3.93;;;2.40;;
81627;SDS011;71036;51.102;6.514;2024-02-26T07:18:35;4.37;;;2.57;;
81627;SDS011;71036;51.102;6.514;2024-02-26T07:21:03;3.97;;;2.17;;
81627;SDS011;71036;51.102;6.514;2024-02-26T07:23:29;3.50;;;2.73;;
81627;SDS011;71036;51.102;6.514;2024-02-26T07:25:54;6.77;;;3.30;;
81627;SDS011;71036;51.102;6.514;2024-02-26T07:28:20;3.27;;;2.67;;
81627;SDS011;71036;51.102;6.514;2024-02-26T07:30:45;4.40;;;2.20;;
81627;SDS011;71036;51.102;6.514;2024-02-26T07:33:10;13.93;;;2.77;;
81627;SDS011;71036;51.102;6.514;2024-02-26T07:35:36;6.37;;;2.23;;
81627;SDS011;71036;51.102;6.514;2024-02-26T07:38:03;5.40;;;4.20;;
81627;SDS011;71036;51.102;6.514;2024-02-26T07:40:29;3.27;;;1.63;;
81627;SDS011;71036;51.102;6.514;2024-02-26T07:42:54;9.60;;;2.23;;
81627;SDS011;71036;51.102;6.514;2024-02-26T07:45:20;5.97;;;2.50;;
81627;SDS011;71036;51.102;6.514;2024-02-26T07:47:46;3.40;;;2.13;;
81627;SDS011;71036;51.102;6.514;2024-02-26T07:50:12;3.30;;;2.10;;
81627;SDS011;71036;51.102;6.514;2024-02-26T07:52:37;9.90;;;2.13;;
81627;SDS011;71036;51.102;6.514;2024-02-26T07:55:03;4.23;;;2.80;;
81627;SDS011;71036;51.102;6.514;2024-02-26T07:57:29;2.93;;;2.07;;
81627;SDS011;71036;51.102;6.514;2024-02-26T07:59:55;2.20;;;1.80;;
81627;SDS011;71036;51.102;6.514;2024-02-26T08:02:20;2.87;;;2.10;;
81627;SDS011;71036;51.102;6.514;2024-02-26T08:04:47;3.13;;;2.20;;
81627;SDS011;71036;51.102;6.514;2024-02-26T08:07:12;6.93;;;2.00;;
81627;SDS011;71036;51.102;6.514;2024-02-26T08:09:37;2.73;;;2.30;;
81627;SDS011;71036;51.102;6.514;2024-02-26T08:12:03;3.40;;;1.93;;
81627;SDS011;71036;51.102;6.514;2024-02-26T08:14:28;4.00;;;2.70;;
81627;SDS011;71036;51.102;6.514;2024-02-26T08:16:53;9.57;;;2.90;;
81627;SDS011;71036;51.102;6.514;2024-02-26T08:19:19;3.30;;;2.30;;
81627;SDS011;71036;51.102;6.514;2024-02-26T08:21:44;3.47;;;2.20;;
81627;SDS011;71036;51.102;6.514;2024-02-26T08:24:09;6.47;;;2.37;;
81627;SDS011;71036;51.102;6.514;2024-02-26T08:26:35;6.50;;;2.27;;
81627;SDS011;71036;51.102;6.514;2024-02-26T08:29:00;4.50;;;2.33;;
81627;SDS011;71036;51.102;6.514;2024-02-26T08:31:26;4.50;;;2.50;;
81627;SDS011;71036;51.102;6.514;2024-02-26T08:33:52;2.43;;;2.07;;
81627;SDS011;71036;51.102;6.514;2024-02-26T08:36:17;4.63;;;2.47;;
81627;SDS011;71036;51.102;6.514;2024-02-26T08:38:42;7.10;;;2.20;;
81627;SDS011;71036;51.102;6.514;2024-02-26T08:41:08;3.47;;;2.00;;
81627;SDS011;71036;51.102;6.514;2024-02-26T08:43:33;4.43;;;2.53;;
81627;SDS011;71036;51.102;6.514;2024-02-26T08:45:58;4.87;;;2.63;;
81627;SDS011;71036;51.102;6.514;2024-02-26T08:48:24;5.57;;;2.40;;
81627;SDS011;71036;51.102;6.514;2024-02-26T08:50:49;9.33;;;2.03;;
81627;SDS011;71036;51.102;6.514;2024-02-26T08:53:14;3.40;;;2.20;;
81627;SDS011;71036;51.102;6.514;2024-02-26T08:55:40;2.70;;;1.90;;
81627;SDS011;71036;51.102;6.514;2024-02-26T08:58:05;3.90;;;1.80;;
81627;SDS011;71036;51.102;6.514;2024-02-26T09:00:30;2.73;;;1.37;;
81627;SDS011;71036;51.102;6.514;2024-02-26T09:02:56;4.33;;;1.60;;
81627;SDS011;71036;51.102;6.514;2024-02-26T09:05:21;4.47;;;1.37;;
81627;SDS011;71036;51.102;6.514;2024-02-26T09:07:46;1.87;;;1.40;;
81627;SDS011;71036;51.102;6.514;2024-02-26T09:10:12;2.30;;;1.17;;
81627;SDS011;71036;51.102;6.514;2024-02-26T09:12:37;2.30;;;1.70;;
81627;SDS011;71036;51.102;6.514;2024-02-26T09:15:05;1.77;;;1.50;;
81627;SDS011;71036;51.102;6.514;2024-02-26T09:17:31;2.13;;;1.43;;
81627;SDS011;71036;51.102;6.514;2024-02-26T09:19:56;4.23;;;1.30;;
81627;SDS011;71036;51.102;6.514;2024-02-26T09:22:22;8.00;;;2.23;;
81627;SDS011;71036;51.102;6.514;2024-02-26T09:24:47;1.67;;;1.33;;
81627;SDS011;71036;51.102;6.514;2024-02-26T09:27:14;4.20;;;2.00;;
81627;SDS011;71036;51.102;6.514;2024-02-26T09:29:40;4.33;;;1.83;;
81627;SDS011;71036;51.102;6.514;2024-02-26T09:32:05;3.10;;;1.67;;
81627;SDS011;71036;51.102;6.514;2024-02-26T09:34:30;3.10;;;1.50;;
81627;SDS011;71036;51.102;6.514;2024-02-26T09:36:56;1.47;;;1.20;;
81627;SDS011;71036;51.102;6.514;2024-02-26T09:39:21;3.40;;;1.40;;
81627;SDS011;71036;51.102;6.514;2024-02-26T09:41:49;1.43;;;1.00;;
81627;SDS011;71036;51.102;6.514;2024-02-26T09:44:15;1.30;;;0.87;;
81627;SDS011;71036;51.102;6.514;2024-02-26T09:46:45;1.30;;;1.20;;
81627;SDS011;71036;51.102;6.514;2024-02-26T09:49:12;2.23;;;1.70;;
81627;SDS011;71036;51.102;6.514;2024-02-26T09:51:40;3.93;;;2.00;;
81627;SDS011;71036;51.102;6.514;2024-02-26T09:54:05;7.83;;;1.53;;
81627;SDS011;71036;51.102;6.514;2024-02-26T09:56:34;3.30;;;1.80;;
81627;SDS011;71036;51.102;6.514;2024-02-26T09:58:59;2.10;;;1.40;;
81627;SDS011;71036;51.102;6.514;2024-02-26T10:01:27;2.73;;;1.60;;
81627;SDS011;71036;51.102;6.514;2024-02-26T10:03:57;2.47;;;1.50;;
81627;SDS011;71036;51.102;6.514;2024-02-26T10:06:23;3.17;;;1.53;;
81627;SDS011;71036;51.102;6.514;2024-02-26T10:08:51;9.00;;;2.33;;
81627;SDS011;71036;51.102;6.514;2024-02-26T10:11:16;3.10;;;1.50;;
81627;SDS011;71036;51.102;6.514;2024-02-26T10:13:42;9.03;;;2.10;;
81627;SDS011;71036;51.102;6.514;2024-02-26T10:16:07;4.53;;;2.20;;
81627;SDS011;71036;51.102;6.514;2024-02-26T10:18:48;4.73;;;2.20;;
81627;SDS011;71036;51.102;6.514;2024-02-26T10:21:19;3.07;;;1.63;;
81627;SDS011;71036;51.102;6.514;2024-02-26T10:23:46;2.17;;;1.50;;
81627;SDS011;71036;51.102;6.514;2024-02-26T10:26:13;2.73;;;1.80;;
81627;SDS011;71036;51.102;6.514;2024-02-26T10:28:39;5.50;;;2.33;;
81627;SDS011;71036;51.102;6.514;2024-02-26T10:31:08;6.30;;;2.20;;
81627;SDS011;71036;51.102;6.514;2024-02-26T10:33:34;2.83;;;2.50;;
81627;SDS011;71036;51.102;6.514;2024-02-26T10:36:01;8.43;;;2.97;;
81627;SDS011;71036;51.102;6.514;2024-02-26T10:38:27;3.60;;;2.40;;
81627;SDS011;71036;51.102;6.514;2024-02-26T10:40:53;6.83;;;2.17;;
81627;SDS011;71036;51.102;6.514;2024-02-26T10:43:19;3.20;;;2.50;;
81627;SDS011;71036;51.102;6.514;2024-02-26T10:45:44;6.10;;;2.67;;
81627;SDS011;71036;51.102;6.514;2024-02-26T10:48:11;4.07;;;2.30;;
81627;SDS011;71036;51.102;6.514;2024-02-26T10:50:38;5.33;;;2.60;;
81627;SDS011;71036;51.102;6.514;2024-02-26T10:53:03;4.37;;;2.47;;
81627;SDS011;71036;51.102;6.514;2024-02-26T10:55:37;6.10;;;3.07;;
81627;SDS011;71036;51.102;6.514;2024-02-26T10:58:03;3.30;;;2.00;;
81627;SDS011;71036;51.102;6.514;2024-02-26T11:00:29;3.83;;;2.17;;
81627;SDS011;71036;51.102;6.514;2024-02-26T11:02:56;2.87;;;1.47;;
81627;SDS011;71036;51.102;6.514;2024-02-26T11:05:26;8.70;;;2.80;;
81627;SDS011;71036;51.102;6.514;2024-02-26T11:07:52;3.13;;;2.13;;
81627;SDS011;71036;51.102;6.514;2024-02-26T11:10:18;6.70;;;2.83;;
81627;SDS011;71036;51.102;6.514;2024-02-26T11:12:44;2.77;;;1.83;;
81627;SDS011;71036;51.102;6.514;2024-02-26T11:15:11;2.23;;;1.43;;
81627;SDS011;71036;51.102;6.514;2024-02-26T11:17:37;4.40;;;2.33;;
81627;SDS011;71036;51.102;6.514;2024-02-26T11:20:03;3.73;;;2.07;;
81627;SDS011;71036;51.102;6.514;2024-02-26T11:22:30;2.50;;;1.77;;
81627;SDS011;71036;51.102;6.514;2024-02-26T11:24:57;3.63;;;2.10;;
81627;SDS011;71036;51.102;6.514;2024-02-26T11:27:25;3.77;;;2.00;;
81627;SDS011;71036;51.102;6.514;2024-02-26T11:29:55;4.90;;;2.10;;
81627;SDS011;71036;51.102;6.514;2024-02-26T11:32:24;3.80;;;2.00;;
81627;SDS011;71036;51.102;6.514;2024-02-26T11:34:51;3.40;;;2.10;;
81627;SDS011;71036;51.102;6.514;2024-02-26T11:37:18;4.30;;;2.07;;
81627;SDS011;71036;51.102;6.514;2024-02-26T11:39:45;2.83;;;1.63;;
81627;SDS011;71036;51.102;6.514;2024-02-26T11:42:13;3.30;;;2.40;;
81627;SDS011;71036;51.102;6.514;2024-02-26T11:44:40;3.60;;;2.27;;
81627;SDS011;71036;51.102;6.514;2024-02-26T11:47:13;7.13;;;2.33;;
81627;SDS011;71036;51.102;6.514;2024-02-26T11:49:45;6.63;;;2.60;;
81627;SDS011;71036;51.102;6.514;2024-02-26T11:52:12;2.43;;;2.13;;
81627;SDS011;71036;51.102;6.514;2024-02-26T11:54:51;3.70;;;2.40;;
81627;SDS011;71036;51.102;6.514;2024-02-26T11:59:51;4.53;;;2.53;;
81627;SDS011;71036;51.102;6.514;2024-02-26T12:05:15;5.10;;;3.43;;
81627;SDS011;71036;51.102;6.514;2024-02-26T12:07:48;5.30;;;3.30;;
81627;SDS011;71036;51.102;6.514;2024-02-26T12:12:47;5.60;;;2.80;;
81627;SDS011;71036;51.102;6.514;2024-02-26T12:15:12;8.53;;;3.67;;
81627;SDS011;71036;51.102;6.514;2024-02-26T12:17:40;10.23;;;3.90;;
81627;SDS011;71036;51.102;6.514;2024-02-26T12:20:10;4.67;;;3.73;;
81627;SDS011;71036;51.102;6.514;2024-02-26T12:22:36;5.50;;;3.90;;
81627;SDS011;71036;51.102;6.514;2024-02-26T12:25:04;8.23;;;3.37;;
81627;SDS011;71036;51.102;6.514;2024-02-26T12:27:30;5.63;;;3.70;;
81627;SDS011;71036;51.102;6.514;2024-02-26T12:29:56;6.47;;;3.63;;
81627;SDS011;71036;51.102;6.514;2024-02-26T12:32:21;8.27;;;4.17;;
81627;SDS011;71036;51.102;6.514;2024-02-26T12:34:48;5.10;;;3.70;;
81627;SDS011;71036;51.102;6.514;2024-02-26T12:37:14;5.60;;;3.93;;
81627;SDS011;71036;51.102;6.514;2024-02-26T12:39:40;6.73;;;3.43;;
81627;SDS011;71036;51.102;6.514;2024-02-26T12:42:06;6.90;;;4.13;;
81627;SDS011;71036;51.102;6.514;2024-02-26T12:44:31;4.70;;;3.07;;
81627;SDS011;71036;51.102;6.514;2024-02-26T12:47:03;9.40;;;3.90;;
81627;SDS011;71036;51.102;6.514;2024-02-26T12:49:29;4.70;;;3.60;;
81627;SDS011;71036;51.102;6.514;2024-02-26T12:51:54;7.80;;;4.23;;
81627;SDS011;71036;51.102;6.514;2024-02-26T12:54:26;7.67;;;4.20;;
81627;SDS011;71036;51.102;6.514;2024-02-26T12:56:52;7.43;;;3.87;;
81627;SDS011;71036;51.102;6.514;2024-02-26T12:59:18;7.93;;;3.97;;
81627;SDS011;71036;51.102;6.514;2024-02-26T13:01:43;8.30;;;5.07;;
81627;SDS011;71036;51.102;6.514;2024-02-26T13:04:09;7.70;;;4.70;;
81627;SDS011;71036;51.102;6.514;2024-02-26T13:06:35;10.43;;;5.07;;
81627;SDS011;71036;51.102;6.514;2024-02-26T13:09:00;19.03;;;4.77;;
81627;SDS011;71036;51.102;6.514;2024-02-26T13:11:27;12.43;;;4.87;;
81627;SDS011;71036;51.102;6.514;2024-02-26T13:13:53;10.00;;;5.40;;
81627;SDS011;71036;51.102;6.514;2024-02-26T13:16:19;19.43;;;6.13;;
81627;SDS011;71036;51.102;6.514;2024-02-26T13:18:48;12.73;;;5.27;;
81627;SDS011;71036;51.102;6.514;2024-02-26T13:21:13;13.27;;;7.00;;
81627;SDS011;71036;51.102;6.514;2024-02-26T13:23:40;12.60;;;6.57;;
81627;SDS011;71036;51.102;6.514;2024-02-26T13:26:06;11.50;;;7.00;;
81627;SDS011;71036;51.102;6.514;2024-02-26T13:28:32;20.53;;;7.07;;
81627;SDS011;71036;51.102;6.514;2024-02-26T13:30:58;10.97;;;7.27;;
81627;SDS011;71036;51.102;6.514;2024-02-26T13:33:26;12.17;;;6.63;;
81627;SDS011;71036;51.102;6.514;2024-02-26T13:35:53;13.83;;;6.27;;
81627;SDS011;71036;51.102;6.514;2024-02-26T13:38:20;10.83;;;6.47;;
81627;SDS011;71036;51.102;6.514;2024-02-26T13:40:45;15.40;;;7.67;;
81627;SDS011;71036;51.102;6.514;2024-02-26T13:43:11;13.20;;;6.80;;
81627;SDS011;71036;51.102;6.514;2024-02-26T13:45:36;13.53;;;6.67;;
81627;SDS011;71036;51.102;6.514;2024-02-26T13:48:03;13.53;;;6.90;;
81627;SDS011;71036;51.102;6.514;2024-02-26T13:50:30;10.40;;;5.60;;
81627;SDS011;71036;51.102;6.514;2024-02-26T13:52:56;12.90;;;6.37;;
81627;SDS011;71036;51.102;6.514;2024-02-26T13:55:22;11.70;;;7.17;;
81627;SDS011;71036;51.102;6.514;2024-02-26T13:57:50;16.00;;;6.47;;
81627;SDS011;71036;51.102;6.514;2024-02-26T14:00:18;16.20;;;7.33;;
81627;SDS011;71036;51.102;6.514;2024-02-26T14:02:44;13.60;;;7.80;;
81627;SDS011;71036;51.102;6.514;2024-02-26T14:05:10;13.10;;;7.30;;
81627;SDS011;71036;51.102;6.514;2024-02-26T14:07:35;18.53;;;7.80;;
81627;SDS011;71036;51.102;6.514;2024-02-26T14:10:01;10.80;;;5.80;;
81627;SDS011;71036;51.102;6.514;2024-02-26T14:12:26;12.63;;;6.70;;
81627;SDS011;71036;51.102;6.514;2024-02-26T14:14:51;15.20;;;7.67;;
81627;SDS011;71036;51.102;6.514;2024-02-26T14:17:20;13.17;;;7.10;;
81627;SDS011;71036;51.102;6.514;2024-02-26T14:19:46;14.50;;;7.43;;
81627;SDS011;71036;51.102;6.514;2024-02-26T14:22:13;16.60;;;7.13;;
81627;SDS011;71036;51.102;6.514;2024-02-26T14:24:39;13.27;;;6.90;;
81627;SDS011;71036;51.102;6.514;2024-02-26T14:27:06;14.90;;;7.70;;
81627;SDS011;71036;51.102;6.514;2024-02-26T14:29:33;14.17;;;7.27;;
81627;SDS011;71036;51.102;6.514;2024-02-26T14:31:59;12.93;;;7.13;;
81627;SDS011;71036;51.102;6.514;2024-02-26T14:34:24;10.47;;;6.90;;
81627;SDS011;71036;51.102;6.514;2024-02-26T14:36:51;11.60;;;6.37;;
81627;SDS011;71036;51.102;6.514;2024-02-26T14:39:17;13.10;;;7.20;;
81627;SDS011;71036;51.102;6.514;2024-02-26T14:41:42;10.30;;;6.33;;
81627;SDS011;71036;51.102;6.514;2024-02-26T14:44:08;12.30;;;7.13;;
81627;SDS011;71036;51.102;6.514;2024-02-26T14:46:33;13.73;;;5.70;;